createdAt,value
2019-05-14T00:00:51.993Z,101805.92
2019-05-14T00:03:23.046Z,101799.42
2019-05-14T00:05:55.260Z,101806.98
2019-05-14T00:08:26.994Z,101804.79
2019-05-14T00:11:01.456Z,101801.03
2019-05-14T00:13:33.533Z,101795.97
2019-05-14T00:16:05.577Z,101788.63
2019-05-14T00:18:37.385Z,101794.45
2019-05-14T00:21:09.391Z,101794.29
2019-05-14T00:23:42.052Z,101796.06
2019-05-14T00:26:14.861Z,101797.38
2019-05-14T00:28:46.645Z,101791.75
2019-05-14T00:31:21.163Z,101796.91
2019-05-14T00:33:52.266Z,101798.17
2019-05-14T00:36:24.191Z,101794.41
2019-05-14T00:38:55.949Z,101790.53
2019-05-14T00:41:28.170Z,101790.96
2019-05-14T00:44:01.796Z,101789.61
2019-05-14T00:46:33.711Z,101795.30
2019-05-14T00:49:05.545Z,101793.69
2019-05-14T00:51:37.373Z,101797.16
2019-05-14T00:54:11.158Z,101795.05
2019-05-14T00:56:43.464Z,101796.19
2019-05-14T00:59:15.221Z,101796.66
2019-05-14T01:01:47.169Z,101796.70
2019-05-14T01:04:18.953Z,101790.62
2019-05-14T01:06:51.223Z,101793.66
2019-05-14T01:09:23.413Z,101794.50
2019-05-14T01:11:55.763Z,101792.39
2019-05-14T01:14:27.522Z,101782.77
2019-05-14T01:17:01.799Z,101783.95
2019-05-14T01:19:34.012Z,101788.29
2019-05-14T01:22:07.183Z,101780.53
2019-05-14T01:24:41.438Z,101773.40
2019-05-14T01:27:13.165Z,101771.63
2019-05-14T01:29:44.934Z,101775.01
2019-05-14T01:32:16.787Z,101772.89
2019-05-14T01:34:48.599Z,101773.78
2019-05-14T01:37:21.890Z,101766.77
2019-05-14T01:39:53.958Z,101767.16
2019-05-14T01:42:26.104Z,101768.84
2019-05-14T01:44:57.885Z,101766.06
2019-05-14T01:47:31.725Z,101773.31
2019-05-14T01:50:03.325Z,101771.88
2019-05-14T01:52:35.544Z,101773.70
2019-05-14T01:55:07.550Z,101763.23
2019-05-14T01:57:42.266Z,101771.12
2019-05-14T02:00:13.676Z,101768.47
2019-05-14T02:02:45.628Z,101762.02
2019-05-14T02:05:17.491Z,101757.66
2019-05-14T02:07:49.595Z,101756.02
2019-05-14T02:10:22.737Z,101746.48
2019-05-14T02:12:54.845Z,101751.25
2019-05-14T02:15:38.883Z,101746.02
2019-05-14T02:18:02.232Z,101748.13
2019-05-14T02:20:33.608Z,101749.86
2019-05-14T02:23:05.674Z,101744.12
2019-05-14T02:25:37.447Z,101748.05
2019-05-14T02:28:11.573Z,101748.94
2019-05-14T02:30:51.974Z,101743.74
2019-05-14T02:33:19.223Z,101745.13
2019-05-14T02:35:50.310Z,101742.90
2019-05-14T02:38:22.141Z,101739.90
2019-05-14T02:40:53.992Z,101735.64
2019-05-14T02:43:29.039Z,101736.91
2019-05-14T02:46:10.783Z,101740.38
2019-05-14T02:48:33.515Z,101736.15
2019-05-14T02:51:05.350Z,101733.62
2019-05-14T02:53:39.134Z,101737.96
2019-05-14T02:56:11.076Z,101737.96
2019-05-14T02:58:43.264Z,101734.47
2019-05-14T03:01:15.017Z,101735.77
2019-05-14T03:03:49.579Z,101738.34
2019-05-14T03:06:21.161Z,101734.13
2019-05-14T03:08:52.988Z,101724.84
2019-05-14T03:11:24.787Z,101723.48
2019-05-14T03:13:59.761Z,101724.80
2019-05-14T03:16:35.263Z,101723.88
2019-05-14T03:19:04.941Z,101725.09
2019-05-14T03:21:39.552Z,101722.02
2019-05-14T03:24:10.744Z,101722.06
2019-05-14T03:26:42.550Z,101715.05
2019-05-14T03:29:14.653Z,101721.17
2019-05-14T03:31:51.869Z,101722.47
2019-05-14T03:34:22.375Z,101718.55
2019-05-14T03:36:53.836Z,101719.73
2019-05-14T03:39:25.882Z,101720.99
2019-05-14T03:41:59.005Z,101722.77
2019-05-14T03:44:31.644Z,101725.76
2019-05-14T03:47:05.210Z,101722.64
2019-05-14T03:49:39.828Z,101715.20
2019-05-14T03:52:11.837Z,101711.23
2019-05-14T03:54:44.015Z,101711.98
2019-05-14T03:57:15.857Z,101704.09
2019-05-14T03:59:49.830Z,101706.30
2019-05-14T04:02:22.316Z,101704.89
2019-05-14T04:04:54.331Z,101703.97
2019-05-14T04:07:30.403Z,101710.17
2019-05-14T04:10:03.236Z,101715.27
2019-05-14T04:12:40.376Z,101707.42
2019-05-14T04:15:12.940Z,101705.70
2019-05-14T04:17:50.138Z,101711.02
2019-05-14T04:20:20.920Z,101707.78
2019-05-14T04:22:56.092Z,101706.14
2019-05-14T04:25:31.290Z,101701.70
2019-05-14T04:28:05.496Z,101703.86
2019-05-14T04:30:40.826Z,101695.13
2019-05-14T04:33:19.002Z,101686.67
2019-05-14T04:35:51.268Z,101683.03
2019-05-14T04:38:23.148Z,101684.16
2019-05-14T04:40:55.142Z,101688.38
2019-05-14T04:43:29.406Z,101691.04
2019-05-14T04:46:00.674Z,101687.37
2019-05-14T04:48:37.636Z,101686.31
2019-05-14T04:51:09.552Z,101683.14
2019-05-14T04:53:39.801Z,101676.21
2019-05-14T04:56:11.991Z,101672.48
2019-05-14T04:58:43.761Z,101678.78
2019-05-14T05:01:16.146Z,101668.64
2019-05-14T05:03:50.280Z,101673.78
2019-05-14T05:06:21.416Z,101682.02
2019-05-14T05:08:53.188Z,101684.16
2019-05-14T05:11:25.014Z,101674.48
2019-05-14T05:13:59.306Z,101673.97
2019-05-14T05:16:30.478Z,101685.66
2019-05-14T05:19:02.692Z,101680.41
2019-05-14T05:21:34.466Z,101680.70
2019-05-14T05:24:06.308Z,101683.22
2019-05-14T05:26:39.257Z,101684.70
2019-05-14T05:29:11.143Z,101686.58
2019-05-14T05:31:43.405Z,101689.95
2019-05-14T05:34:15.167Z,101687.37
2019-05-14T05:36:48.526Z,101689.10
2019-05-14T05:39:20.676Z,101690.59
2019-05-14T05:41:52.777Z,101689.97
2019-05-14T05:44:24.681Z,101696.47
2019-05-14T05:46:59.450Z,101703.39
2019-05-14T05:49:30.493Z,101702.88
2019-05-14T05:52:02.273Z,101704.52
2019-05-14T05:54:34.267Z,101701.94
2019-05-14T05:57:09.041Z,101695.80
2019-05-14T05:59:40.257Z,101703.39
2019-05-14T06:02:12.570Z,101699.45
2019-05-14T06:04:44.383Z,101694.50
2019-05-14T06:07:18.377Z,101694.83
2019-05-14T06:09:50.040Z,101699.89
2019-05-14T06:12:22.062Z,101691.41
2019-05-14T06:14:53.892Z,101692.62
2019-05-14T06:17:28.534Z,101691.25
2019-05-14T06:19:59.760Z,101690.58
2019-05-14T06:22:31.867Z,101695.30
2019-05-14T06:25:03.636Z,101692.84
2019-05-14T06:27:37.894Z,101691.73
2019-05-14T06:30:11.433Z,101692.51
2019-05-14T06:32:43.600Z,101682.69
2019-05-14T06:35:19.158Z,101680.61
2019-05-14T06:37:49.981Z,101674.69
2019-05-14T06:40:21.755Z,101675.36
2019-05-14T06:42:53.844Z,101673.05
2019-05-14T06:45:25.592Z,101670.00
2019-05-14T06:47:59.294Z,101665.38
2019-05-14T06:50:31.193Z,101665.66
2019-05-14T06:53:03.065Z,101669.27
2019-05-14T06:55:34.822Z,101665.13
2019-05-14T06:58:09.011Z,101662.66
2019-05-14T07:00:40.135Z,101656.87
2019-05-14T07:03:12.361Z,101662.84
2019-05-14T07:05:44.114Z,101667.70
2019-05-14T07:08:18.785Z,101670.80
2019-05-14T07:10:50.665Z,101676.17
2019-05-14T07:13:22.540Z,101668.52
2019-05-14T07:15:54.301Z,101668.77
2019-05-14T07:18:30.203Z,101663.77
2019-05-14T07:20:59.997Z,101670.98
2019-05-14T07:23:32.107Z,101663.03
2019-05-14T07:26:03.930Z,101663.32
2019-05-14T07:28:35.938Z,101655.75
2019-05-14T07:31:09.775Z,101668.52
2019-05-14T07:33:41.702Z,101663.32
2019-05-14T07:36:13.487Z,101663.20
2019-05-14T07:38:48.669Z,101658.17
2019-05-14T07:41:19.588Z,101656.52
2019-05-14T07:43:51.527Z,101660.05
2019-05-14T07:46:23.278Z,101650.68
2019-05-14T07:49:05.360Z,101653.48
2019-05-14T07:51:28.742Z,101650.44
2019-05-14T07:54:00.583Z,101654.37
2019-05-14T07:56:32.329Z,101649.19
2019-05-14T07:59:04.325Z,101647.48
2019-05-14T08:01:36.087Z,101649.12
2019-05-14T08:04:11.276Z,101644.06
2019-05-14T08:06:42.114Z,101641.66
2019-05-14T08:09:15.059Z,101644.88
2019-05-14T08:11:48.022Z,101645.84
2019-05-14T08:14:20.125Z,101643.41
2019-05-14T08:16:51.905Z,101643.94
2019-05-14T08:19:27.258Z,101646.75
2019-05-14T08:21:58.685Z,101642.42
2019-05-14T08:24:31.168Z,101634.73
2019-05-14T08:27:03.047Z,101637.95
2019-05-14T08:29:36.903Z,101645.72
2019-05-14T08:32:08.970Z,101648.45
2019-05-14T08:34:41.088Z,101639.58
2019-05-14T08:37:12.918Z,101636.31
2019-05-14T08:39:44.946Z,101638.64
2019-05-14T08:42:18.626Z,101630.92
2019-05-14T08:44:51.541Z,101628.86
2019-05-14T08:47:23.453Z,101632.38
2019-05-14T08:49:55.668Z,101632.11
2019-05-14T08:52:28.761Z,101624.83
2019-05-14T08:55:09.964Z,101630.51
2019-05-14T08:57:38.493Z,101633.50
2019-05-14T09:00:13.649Z,101626.20
2019-05-14T09:02:42.794Z,101625.42
2019-05-14T09:05:14.773Z,101620.20
2019-05-14T09:07:48.873Z,101629.09
2019-05-14T09:10:21.356Z,101624.20
2019-05-14T09:12:54.257Z,101622.96
2019-05-14T09:15:28.697Z,101626.50
2019-05-14T09:18:03.196Z,101621.78
2019-05-14T09:20:33.336Z,101628.22
2019-05-14T09:23:05.103Z,101625.94
2019-05-14T09:25:45.284Z,101616.63
2019-05-14T09:28:10.411Z,101621.02
2019-05-14T09:30:42.192Z,101619.09
2019-05-14T09:33:14.045Z,101620.84
2019-05-14T09:35:49.082Z,101617.22
2019-05-14T09:38:20.032Z,101616.97
2019-05-14T09:41:07.039Z,101613.89
2019-05-14T09:43:25.601Z,101618.41
2019-05-14T09:45:58.709Z,101615.95
2019-05-14T09:48:30.842Z,101611.69
2019-05-14T09:51:03.178Z,101605.11
2019-05-14T09:53:38.160Z,101611.25
2019-05-14T09:56:09.865Z,101613.23
2019-05-14T09:58:42.212Z,101610.91
2019-05-14T10:01:14.156Z,101600.69
2019-05-14T10:03:46.013Z,101598.16
2019-05-14T10:06:20.671Z,101601.61
2019-05-14T10:08:51.930Z,101601.67
2019-05-14T10:11:23.855Z,101608.05
2019-05-14T10:13:55.668Z,101603.44
2019-05-14T10:16:29.131Z,101601.73
2019-05-14T10:19:01.237Z,101591.95
2019-05-14T10:21:33.327Z,101597.41
2019-05-14T10:24:05.175Z,101605.94
2019-05-14T10:26:39.204Z,101603.15
2019-05-14T10:29:10.496Z,101608.10
2019-05-14T10:31:42.635Z,101597.45
2019-05-14T10:34:14.537Z,101597.52
2019-05-14T10:36:46.720Z,101599.30
2019-05-14T10:39:19.267Z,101596.09
2019-05-14T10:41:51.321Z,101599.37
2019-05-14T10:44:23.091Z,101596.78
2019-05-14T10:46:55.084Z,101589.95
2019-05-14T10:49:29.711Z,101595.45
2019-05-14T10:52:00.949Z,101594.83
2019-05-14T10:54:32.812Z,101597.19
2019-05-14T10:57:04.648Z,101596.97
2019-05-14T10:59:36.449Z,101597.74
2019-05-14T11:02:11.988Z,101597.27
2019-05-14T11:04:41.958Z,101595.80
2019-05-14T11:07:14.052Z,101591.71
2019-05-14T11:09:45.846Z,101588.81
2019-05-14T11:12:19.332Z,101588.11
2019-05-14T11:14:51.490Z,101583.38
2019-05-14T11:17:23.569Z,101587.01
2019-05-14T11:19:55.355Z,101589.84
2019-05-14T11:22:28.818Z,101582.56
2019-05-14T11:25:01.004Z,101579.39
2019-05-14T11:27:33.079Z,101586.93
2019-05-14T11:30:05.764Z,101581.05
2019-05-14T11:32:38.640Z,101580.45
2019-05-14T11:35:13.169Z,101582.80
2019-05-14T11:37:47.888Z,101577.61
2019-05-14T11:40:19.698Z,101575.52
2019-05-14T11:42:51.715Z,101566.84
2019-05-14T11:45:24.883Z,101569.95
2019-05-14T11:47:58.384Z,101570.80
2019-05-14T11:50:30.519Z,101574.12
2019-05-14T11:53:02.929Z,101573.90
2019-05-14T11:55:34.869Z,101567.00
2019-05-14T11:58:08.737Z,101566.30
2019-05-14T12:00:40.583Z,101567.69
2019-05-14T12:03:12.497Z,101557.94
2019-05-14T12:05:44.313Z,101564.22
2019-05-14T12:08:18.575Z,101558.55
2019-05-14T12:10:49.958Z,101553.64
2019-05-14T12:13:22.019Z,101552.77
2019-05-14T12:15:53.843Z,101552.13
2019-05-14T12:18:26.134Z,101557.81
2019-05-14T12:20:59.413Z,101559.91
2019-05-14T12:23:31.713Z,101560.65
2019-05-14T12:26:03.504Z,101558.91
2019-05-14T12:28:38.444Z,101562.60
2019-05-14T12:31:09.510Z,101557.72
2019-05-14T12:33:41.742Z,101559.34
2019-05-14T12:36:13.528Z,101556.64
2019-05-14T12:38:45.981Z,101558.36
2019-05-14T12:41:19.313Z,101551.77
2019-05-14T12:43:51.385Z,101554.28
2019-05-14T12:46:23.213Z,101553.34
2019-05-14T12:48:55.087Z,101541.14
2019-05-14T12:51:26.878Z,101538.22
2019-05-14T12:53:59.073Z,101532.66
2019-05-14T12:56:30.838Z,101527.50
2019-05-14T12:59:02.806Z,101534.64
2019-05-14T13:01:35.109Z,101521.61
2019-05-14T13:04:08.510Z,101522.28
2019-05-14T13:06:40.651Z,101521.91
2019-05-14T13:09:12.907Z,101514.39
2019-05-14T13:11:44.761Z,101510.56
2019-05-14T13:14:16.585Z,101511.87
2019-05-14T13:16:48.793Z,101515.01
2019-05-14T13:19:21.120Z,101514.91
2019-05-14T13:22:08.792Z,101505.09
2019-05-14T13:24:28.719Z,101504.82
2019-05-14T13:27:00.197Z,101507.52
2019-05-14T13:29:32.082Z,101507.59
2019-05-14T13:32:05.364Z,101513.86
2019-05-14T13:34:39.620Z,101506.11
2019-05-14T13:37:10.829Z,101506.90
2019-05-14T13:39:42.635Z,101508.15
2019-05-14T13:42:15.096Z,101498.37
2019-05-14T13:44:46.934Z,101489.00
2019-05-14T13:47:18.811Z,101488.53
2019-05-14T13:49:50.866Z,101486.38
2019-05-14T13:52:23.025Z,101489.25
2019-05-14T13:54:55.108Z,101490.42
2019-05-14T13:57:28.665Z,101490.49
2019-05-14T14:00:00.879Z,101495.80
2019-05-14T14:02:33.072Z,101489.12
2019-05-14T14:05:05.651Z,101490.50
2019-05-14T14:07:39.646Z,101483.75
2019-05-14T14:10:11.705Z,101491.22
2019-05-14T14:12:43.756Z,101480.55
2019-05-14T14:15:16.022Z,101474.92
2019-05-14T14:17:49.569Z,101473.67
2019-05-14T14:20:21.683Z,101471.83
2019-05-14T14:22:53.495Z,101472.48
2019-05-14T14:25:26.114Z,101477.67
2019-05-14T14:28:00.373Z,101475.58
2019-05-14T14:30:31.666Z,101476.07
2019-05-14T14:33:03.517Z,101475.77
2019-05-14T14:35:38.674Z,101474.45
2019-05-14T14:38:09.873Z,101472.54
2019-05-14T14:40:42.234Z,101463.83
2019-05-14T14:43:14.048Z,101459.23
2019-05-14T14:45:47.624Z,101455.42
2019-05-14T14:48:20.556Z,101458.29
2019-05-14T14:50:52.731Z,101456.14
2019-05-14T14:53:41.340Z,101455.47
2019-05-14T14:56:00.380Z,101451.48
2019-05-14T14:58:32.697Z,101455.94
2019-05-14T15:01:04.805Z,101455.59
2019-05-14T15:03:36.821Z,101460.25
2019-05-14T15:06:09.846Z,101455.53
2019-05-14T15:08:42.016Z,101459.53
2019-05-14T15:11:14.163Z,101453.75
2019-05-14T15:13:48.082Z,101449.45
2019-05-14T15:16:20.361Z,101453.81
2019-05-14T15:18:52.555Z,101457.02
2019-05-14T15:21:24.638Z,101452.37
2019-05-14T15:24:07.139Z,101455.11
2019-05-14T15:26:30.484Z,101450.34
2019-05-14T15:29:02.285Z,101449.38
2019-05-14T15:31:34.242Z,101444.97
2019-05-14T15:34:08.681Z,101437.58
2019-05-14T15:36:41.712Z,101434.42
2019-05-14T15:39:14.583Z,101440.20
2019-05-14T15:41:49.656Z,101440.98
2019-05-14T15:44:20.524Z,101437.58
2019-05-14T15:46:52.644Z,101426.28
2019-05-14T15:49:24.494Z,101429.30
2019-05-14T15:51:56.571Z,101424.13
2019-05-14T15:54:41.882Z,101427.59
2019-05-14T15:57:02.154Z,101421.56
2019-05-14T15:59:34.245Z,101419.06
2019-05-14T16:02:09.084Z,101420.72
2019-05-14T16:04:39.764Z,101419.87
2019-05-14T16:07:11.788Z,101426.92
2019-05-14T16:09:44.685Z,101427.13
2019-05-14T16:12:19.487Z,101433.22
2019-05-14T16:14:50.347Z,101438.00
2019-05-14T16:17:24.749Z,101436.30
2019-05-14T16:19:55.941Z,101442.33
2019-05-14T16:22:29.340Z,101438.88
2019-05-14T16:25:01.304Z,101434.78
2019-05-14T16:27:34.704Z,101430.08
2019-05-14T16:30:09.414Z,101430.59
2019-05-14T16:32:40.532Z,101431.13
2019-05-14T16:35:12.950Z,101422.13
2019-05-14T16:37:45.037Z,101429.47
2019-05-14T16:40:19.303Z,101424.81
2019-05-14T16:42:51.310Z,101425.22
2019-05-14T16:45:23.163Z,101419.45
2019-05-14T16:47:55.027Z,101419.57
2019-05-14T16:50:28.653Z,101416.11
2019-05-14T16:53:00.684Z,101423.79
2019-05-14T16:55:32.601Z,101419.98
2019-05-14T16:58:04.894Z,101420.35
2019-05-14T17:00:36.746Z,101424.52
2019-05-14T17:03:08.981Z,101423.98
2019-05-14T17:05:41.020Z,101414.47
2019-05-14T17:08:13.137Z,101417.50
2019-05-14T17:10:45.004Z,101419.13
2019-05-14T17:13:17.883Z,101422.09
2019-05-14T17:15:49.923Z,101416.31
2019-05-14T17:18:22.249Z,101419.34
2019-05-14T17:20:54.149Z,101418.16
2019-05-14T17:23:28.286Z,101413.76
2019-05-14T17:25:59.904Z,101405.31
2019-05-14T17:28:32.517Z,101392.20
2019-05-14T17:31:04.498Z,101400.22
2019-05-14T17:33:39.201Z,101402.55
2019-05-14T17:36:10.227Z,101408.73
2019-05-14T17:38:42.415Z,101417.91
2019-05-14T17:41:14.385Z,101419.53
2019-05-14T17:43:48.776Z,101414.75
2019-05-14T17:46:20.687Z,101420.00
2019-05-14T17:48:53.034Z,101415.12
2019-05-14T17:51:24.941Z,101420.84
2019-05-14T17:53:58.739Z,101414.75
2019-05-14T17:56:31.013Z,101420.78
2019-05-14T17:59:03.763Z,101427.73
2019-05-14T18:01:35.953Z,101419.06
2019-05-14T18:04:09.140Z,101414.63
2019-05-14T18:06:41.413Z,101421.56
2019-05-14T18:09:13.633Z,101420.25
2019-05-14T18:11:45.543Z,101425.91
2019-05-14T18:14:19.109Z,101424.19
2019-05-14T18:16:51.139Z,101416.73
2019-05-14T18:19:23.122Z,101417.25
2019-05-14T18:21:55.392Z,101417.25
2019-05-14T18:24:28.562Z,101415.94
2019-05-14T18:27:00.886Z,101423.72
2019-05-14T18:29:32.788Z,101414.28
2019-05-14T18:32:04.678Z,101420.00
2019-05-14T18:34:38.997Z,101408.20
2019-05-14T18:37:13.748Z,101407.67
2019-05-14T18:39:44.034Z,101410.61
2019-05-14T18:42:18.863Z,101409.39
2019-05-14T18:44:50.621Z,101404.00
2019-05-14T18:47:22.474Z,101406.24
2019-05-14T18:49:54.597Z,101411.86
2019-05-14T18:52:29.546Z,101407.03
2019-05-14T18:55:00.790Z,101403.16
2019-05-14T18:57:32.812Z,101400.88
2019-05-14T19:00:05.634Z,101401.66
2019-05-14T19:02:39.281Z,101400.34
2019-05-14T19:08:09.975Z,101391.30
2019-05-14T19:10:41.931Z,101393.80
2019-05-14T19:13:15.049Z,101388.98
2019-05-14T19:15:48.282Z,101389.39
2019-05-14T19:18:20.720Z,101385.47
2019-05-14T19:20:52.604Z,101383.63
2019-05-14T19:23:24.643Z,101380.16
2019-05-14T19:25:58.924Z,101388.93
2019-05-14T19:28:30.209Z,101387.13
2019-05-14T19:31:02.023Z,101385.28
2019-05-14T19:33:34.000Z,101385.66
2019-05-14T19:36:05.917Z,101376.05
2019-05-14T19:38:38.947Z,101372.89
2019-05-14T19:41:11.582Z,101369.80
2019-05-14T19:43:43.834Z,101355.38
2019-05-14T19:46:15.750Z,101354.85
2019-05-14T19:48:48.491Z,101349.30
2019-05-14T19:51:20.573Z,101353.17
2019-05-14T19:53:52.852Z,101344.37
2019-05-14T19:56:24.887Z,101349.23
2019-05-14T19:58:57.147Z,101350.14
2019-05-14T20:01:29.158Z,101354.85
2019-05-14T20:04:01.080Z,101350.92
2019-05-14T20:06:32.955Z,101348.83
2019-05-14T20:09:09.480Z,101358.41
2019-05-14T20:11:41.796Z,101361.88
2019-05-14T20:14:13.842Z,101360.09
2019-05-14T20:16:45.998Z,101357.88
2019-05-14T20:19:19.445Z,101359.06
2019-05-14T20:21:51.324Z,101353.48
2019-05-14T20:24:24.174Z,101346.86
2019-05-14T20:27:05.751Z,101351.33
2019-05-14T20:29:31.247Z,101351.80
2019-05-14T20:32:03.695Z,101350.80
2019-05-14T20:34:36.435Z,101352.88
2019-05-14T20:37:08.668Z,101345.48
2019-05-14T20:39:41.528Z,101346.80
2019-05-14T20:42:13.835Z,101341.55
2019-05-14T20:44:46.218Z,101341.55
2019-05-14T20:47:19.023Z,101339.64
2019-05-14T20:49:51.526Z,101339.27
2019-05-14T20:52:23.553Z,101339.11
2019-05-14T20:54:57.919Z,101338.20
2019-05-14T20:57:33.313Z,101332.63
2019-05-14T21:00:03.943Z,101331.19
2019-05-14T21:02:39.059Z,101322.94
2019-05-14T21:05:14.324Z,101315.52
2019-05-14T21:07:44.928Z,101309.77
2019-05-14T21:10:19.080Z,101309.77
2019-05-14T21:12:50.597Z,101309.77
2019-05-14T21:15:22.889Z,101308.83
2019-05-14T21:17:54.829Z,101305.37
2019-05-14T21:20:28.295Z,101305.73
2019-05-14T21:23:00.633Z,101306.74
2019-05-14T21:25:33.518Z,101313.70
2019-05-14T21:28:05.778Z,101308.05
2019-05-14T21:30:38.747Z,101311.52
2019-05-14T21:33:10.918Z,101304.42
2019-05-14T21:35:42.769Z,101306.20
2019-05-14T21:38:14.629Z,101296.19
2019-05-14T21:40:46.533Z,101295.25
2019-05-14T21:43:18.610Z,101293.56
2019-05-14T21:45:50.952Z,101298.34
2019-05-14T21:48:22.963Z,101289.70
2019-05-14T21:50:54.799Z,101286.54
2019-05-14T21:53:26.825Z,101286.61
2019-05-14T21:55:59.098Z,101282.23
2019-05-14T21:58:30.869Z,101280.18
2019-05-14T22:01:04.771Z,101278.81
2019-05-14T22:03:36.660Z,101274.37
2019-05-14T22:06:09.004Z,101273.36
2019-05-14T22:08:40.811Z,101271.66
2019-05-14T22:11:13.093Z,101268.72
2019-05-14T22:13:44.856Z,101266.56
2019-05-14T22:16:18.926Z,101261.16
2019-05-14T22:18:50.513Z,101266.81
2019-05-14T22:21:22.461Z,101260.25
2019-05-14T22:23:54.215Z,101255.78
2019-05-14T22:26:28.176Z,101258.88
2019-05-14T22:28:59.809Z,101252.25
2019-05-14T22:31:31.820Z,101246.17
2019-05-14T22:34:03.808Z,101246.94
2019-05-14T22:36:35.655Z,101244.05
2019-05-14T22:39:08.132Z,101243.14
2019-05-14T22:41:40.160Z,101240.92
2019-05-14T22:44:11.904Z,101235.52
2019-05-14T22:46:43.787Z,101232.39
2019-05-14T22:49:15.593Z,101234.20
2019-05-14T22:51:49.228Z,101223.27
2019-05-14T22:54:22.247Z,101218.33
2019-05-14T22:56:54.567Z,101221.02
2019-05-14T22:59:28.305Z,101221.89
2019-05-14T23:01:59.959Z,101231.91
2019-05-14T23:04:31.807Z,101219.58
2019-05-14T23:07:03.799Z,101213.48
2019-05-14T23:09:35.646Z,101211.30
2019-05-14T23:12:11.974Z,101216.55
2019-05-14T23:14:41.391Z,101209.92
2019-05-14T23:17:13.507Z,101206.39
2019-05-14T23:19:45.336Z,101208.11
2019-05-14T23:22:18.579Z,101208.95
2019-05-14T23:24:50.707Z,101210.19
2019-05-14T23:27:22.564Z,101203.63
2019-05-14T23:29:54.533Z,101204.88
2019-05-14T23:32:28.566Z,101207.03
2019-05-14T23:35:00.068Z,101202.33
2019-05-14T23:37:32.719Z,101197.45
2019-05-14T23:40:04.756Z,101200.07
2019-05-14T23:42:39.293Z,101200.00
2019-05-14T23:45:10.762Z,101191.52
2019-05-14T23:47:42.906Z,101189.30
2019-05-14T23:50:14.977Z,101185.30
2019-05-14T23:52:49.373Z,101187.92
2019-05-14T23:55:20.293Z,101186.61
2019-05-14T23:57:52.523Z,101189.23
